This is the latest recevied weather packets stored in our database for station/object KA0EGE. If no packets are shown the sender has not sent any weather packets the latest 10 day(s).
| Time | Temp. | Humidity | Pressure | Rain* | Wind** | Luminosity | Snow |
|---|---|---|---|---|---|---|---|
| 1777324347 | 28.89° C | 65% | 1018.8 hPa | 0 mm | - | 205 W/m² | - |
| 1777324044 | 28.89° C | 63% | 1018.8 hPa | 0 mm | - | 267 W/m² | - |
| 1777323742 | 28.33° C | 65% | 1019 hPa | 0 mm | - | 273 W/m² | - |
| 1777323438 | 28.33° C | 66% | 1018.8 hPa | 0 mm | - | 226 W/m² | - |
| 1777323136 | 28.89° C | 66% | 1018.9 hPa | 0 mm | - | 186 W/m² | - |
| 1777322834 | 29.44° C | 62% | 1019.1 hPa | 0 mm | - | 164 W/m² | - |
| 1777322532 | 30° C | 59% | 1018.9 hPa | 0 mm | - | 641 W/m² | - |
| 1777322229 | 29.44° C | 61% | 1018.8 hPa | 0 mm | - | 612 W/m² | - |
| 1777321926 | 29.44° C | 62% | 1018.9 hPa | 0 mm | - | 720 W/m² | - |
| 1777321623 | 28.89° C | 61% | 1018.8 hPa | 0 mm | - | 253 W/m² | - |
| 1777321319 | 28.89° C | 61% | 1018.7 hPa | 0 mm | - | 173 W/m² | - |
| 1777321016 | 29.44° C | 60% | 1018.7 hPa | 0 mm | - | 506 W/m² | - |
| 1777320714 | 29.44° C | 60% | 1018.8 hPa | 0 mm | - | 217 W/m² | - |
| 1777320411 | 30.56° C | 57% | 1018.8 hPa | 0 mm | - | 307 W/m² | - |
| 1777320107 | 30.56° C | 56% | 1019 hPa | 0 mm | - | 741 W/m² | - |
| 1777319805 | 29.44° C | 59% | 1019.1 hPa | 0 mm | - | 803 W/m² | - |
| 1777319502 | 30° C | 58% | 1019 hPa | 0 mm | - | 203 W/m² | - |
| 1777319199 | 30° C | 57% | 1019.1 hPa | 0 mm | - | 795 W/m² | - |
| 1777318896 | 30° C | 59% | 1018.9 hPa | 0 mm | - | 800 W/m² | - |
| 1777318592 | 30° C | 59% | 1019.1 hPa | 0 mm | - | 804 W/m² | - |
| 1777318289 | 29.44° C | 60% | 1019.5 hPa | 0 mm | - | 831 W/m² | - |
| 1777317985 | 30° C | 58% | 1019.2 hPa | 0 mm | - | 861 W/m² | - |
| 1777317683 | 30° C | 57% | 1019.2 hPa | 0 mm | - | 910 W/m² | - |
| 1777317380 | 30° C | 59% | 1019.3 hPa | 0 mm | - | 857 W/m² | - |
| 1777317075 | 30.56° C | 55% | 1019.3 hPa | 0 mm | - | 848 W/m² | - |
* Rain latest hour (hover to see other rain measurements)
** Current wind speed in m/s (hover to see current wind gust speed)